Главная страница
METAR-TAF:

METAR-TAF

Аэропорты :

Нуакшот, Мавритания

широта: 18-18-36N, долгота: 015-58-11W, высота над уровнем моря: 3 м

Текущие метеонаблюдения

Эта сводка был подготовлена 25 минут назад, в 03:30 UTC
Ветер 12 Узел от северный
Температура 26°C
Влажность 51%
Давление 1011 hPa
Видимость 10 км и более
Нет облачности ниже 1500 м, и нет кучево-дождевой облачности

METAR: GQNO 180330Z 36012KT CAVOK 26/15 Q1011 NOSIG

Время: 03:55 (03:55 UTC)

Прогноз

Эта сводка был подготовлена 4 часа и 55 минут назад, в 23:00 UTC
Прогноз действительный с 18-го 00 UTC до 19-го 06 UTC
Ветер 8 Узел от северно-северо-западный
Видимость: 8000 м
Вероятность 30% :
временами
С 18-го 10 UTC до 18-го 13 UTC
Ветер 5 Узел от северо-северо-восточный

TAF: GQNO 172300Z 1800/1906 33008KT 8000 NSC PROB30 TEMPO 1810/1813 03005KT

Метеонаблюдения и прогнозы для более 4000 аэропортов (сводки METAR и TAF).

Имеющиеся станции представлены на карте желтыми и красными точками.

Чтобы увидеть название станции, наведите на нее мышь.

Затем щелкните, чтобы увидеть метеонаблюдения и метеопрогнозы.

Управление картой: чтобы увеличить масштаб, щелкните зеленые кнопки с черным крестиком; чтобы уменьшить масштаб, щелкните зеленую кнопку с тире; для просмотра соседних карт щелкайте зеленые стрелки.


METAR-TAF: